Time;durP1;ratioP1;P1;durP2;ratioP2;P2;SDS_P1;SDS_P2;PMS_P1;PMS_P2;Temp;Humidity;BMP_temperature;BMP_pressure;BME280_temperature;BME280_humidity;BME280_pressure;Samples;Min_cycle;Max_cycle;Signal;HPM_P1;HPM_P2
2023/07/28 00:00:29;;;;;;;0.10;0.10;;;22.20;73.40;;;;;;5011729;28;20128;-79
2023/07/28 00:02:55;;;;;;;0.13;0.13;;;22.10;73.40;;;;;;5026281;28;20419;-79
2023/07/28 00:05:20;;;;;;;0.20;0.20;;;22.10;73.50;;;;;;5024465;28;20046;-80
2023/07/28 00:07:46;;;;;;;0.20;0.20;;;22.10;73.50;;;;;;5026307;28;20503;-80
2023/07/28 00:10:11;;;;;;;0.25;0.20;;;22.10;73.50;;;;;;5023653;28;20396;-80
2023/07/28 00:12:37;;;;;;;0.68;0.30;;;22.10;73.70;;;;;;5024629;28;20133;-80
2023/07/28 00:15:03;;;;;;;0.20;0.20;;;22.10;73.60;;;;;;4992086;28;20033;-80
2023/07/28 00:17:28;;;;;;;0.20;0.20;;;22.10;73.60;;;;;;5024044;28;20060;-80
2023/07/28 00:19:54;;;;;;;0.20;0.20;;;22.10;73.60;;;;;;5022494;28;20029;-79
2023/07/28 00:22:19;;;;;;;0.20;0.20;;;22.10;73.40;;;;;;5024029;28;20083;-80
2023/07/28 00:24:45;;;;;;;0.20;0.20;;;22.10;73.90;;;;;;5006366;28;20124;-81
2023/07/28 00:27:12;;;;;;;0.10;0.10;;;22.10;74.00;;;;;;4985389;28;20091;-81
2023/07/28 00:29:38;;;;;;;0.20;0.13;;;22.10;74.00;;;;;;5005013;28;20060;-80
2023/07/28 00:32:04;;;;;;;0.20;0.20;;;22.10;74.00;;;;;;5024517;28;20061;-80
2023/07/28 00:34:29;;;;;;;0.10;0.10;;;22.10;74.10;;;;;;5018947;28;20046;-80
2023/07/28 00:36:55;;;;;;;0.20;0.20;;;22.20;74.20;;;;;;5021290;28;20045;-80
2023/07/28 00:39:21;;;;;;;0.10;0.10;;;22.10;74.10;;;;;;5004716;28;20050;-80
2023/07/28 00:41:46;;;;;;;0.10;0.10;;;22.10;74.10;;;;;;5006156;28;20072;-80
2023/07/28 00:44:12;;;;;;;0.20;0.20;;;22.10;74.20;;;;;;5023549;28;20034;-80
2023/07/28 00:46:37;;;;;;;0.15;0.15;;;22.10;74.10;;;;;;5021594;28;20061;-80
2023/07/28 00:49:03;;;;;;;0.20;0.10;;;22.10;73.60;;;;;;5022283;28;20407;-79
2023/07/28 00:51:29;;;;;;;0.15;0.15;;;22.10;73.50;;;;;;5006997;28;20483;-80
2023/07/28 00:53:55;;;;;;;0.10;0.10;;;22.10;74.90;;;;;;5006813;28;20064;-79
2023/07/28 00:56:20;;;;;;;0.10;0.10;;;22.10;74.10;;;;;;5020906;28;20077;-80
2023/07/28 00:58:46;;;;;;;0.10;0.10;;;22.10;74.20;;;;;;5007156;28;20096;-80
2023/07/28 01:01:11;;;;;;;0.10;0.10;;;22.10;75.10;;;;;;5023905;28;20061;-80
2023/07/28 01:03:37;;;;;;;0.10;0.10;;;22.10;75.30;;;;;;5023037;28;20038;-80
2023/07/28 01:06:22;;;;;;;0.40;0.10;;;22.10;75.20;;;;;;5023598;28;20041;-79
2023/07/28 01:09:04;;;;;;;0.13;0.13;;;22.10;74.00;;;;;;5006027;28;20460;-80
2023/07/28 01:11:30;;;;;;;0.08;0.08;;;22.10;74.60;;;;;;5017645;28;20045;-80
2023/07/28 01:13:55;;;;;;;0.20;0.20;;;22.10;74.60;;;;;;5053907;28;20050;-80
2023/07/28 01:16:21;;;;;;;0.20;0.20;;;22.10;74.60;;;;;;5003525;28;20060;-80
2023/07/28 01:18:46;;;;;;;0.15;0.15;;;22.10;74.80;;;;;;5020639;28;20466;-80
2023/07/28 01:21:21;;;;;;;0.17;0.17;;;22.10;74.80;;;;;;5022484;28;20061;-80
2023/07/28 01:24:15;;;;;;;0.10;0.10;;;22.10;74.90;;;;;;5022662;28;20068;-80
2023/07/28 01:26:41;;;;;;;0.10;0.10;;;22.10;74.80;;;;;;5020949;28;20103;-80
2023/07/28 01:29:06;;;;;;;0.17;0.17;;;22.10;74.60;;;;;;5022428;28;20053;-80
2023/07/28 01:31:32;;;;;;;0.10;0.10;;;22.10;74.80;;;;;;5025217;28;20041;-80
2023/07/28 01:33:57;;;;;;;0.10;0.10;;;22.10;75.50;;;;;;5028650;28;20056;-80
2023/07/28 01:36:23;;;;;;;0.15;0.13;;;22.10;75.60;;;;;;5007862;28;20450;-80
2023/07/28 01:38:49;;;;;;;0.10;0.10;;;22.00;74.80;;;;;;5025655;28;20503;-80
2023/07/28 01:41:14;;;;;;;0.28;0.10;;;22.10;74.90;;;;;;5025308;28;20037;-80
2023/07/28 01:43:41;;;;;;;0.00;0.00;;;22.10;75.00;;;;;;5026240;28;20404;-80
2023/07/28 01:46:07;;;;;;;1.42;0.10;;;22.10;74.80;;;;;;5024226;28;20041;-80
2023/07/28 01:48:33;;;;;;;0.10;0.10;;;22.10;74.90;;;;;;5025478;28;20404;-80
2023/07/28 01:50:58;;;;;;;0.10;0.10;;;22.10;75.00;;;;;;5027083;28;20395;-80
2023/07/28 01:53:24;;;;;;;0.10;0.10;;;22.10;75.10;;;;;;5029342;28;20460;-81
2023/07/28 01:55:49;;;;;;;0.10;0.10;;;22.10;74.80;;;;;;5024727;28;20057;-80
2023/07/28 01:58:15;;;;;;;0.10;0.10;;;22.10;74.80;;;;;;5021921;28;20104;-80
2023/07/28 02:00:40;;;;;;;0.10;0.10;;;22.10;75.10;;;;;;5026446;28;20103;-80
2023/07/28 02:03:07;;;;;;;0.40;0.10;;;22.10;75.10;;;;;;5024410;28;20045;-80
2023/07/28 02:05:32;;;;;;;0.10;0.10;;;22.10;75.10;;;;;;5021497;28;20027;-80
2023/07/28 02:07:58;;;;;;;0.05;0.05;;;22.10;75.10;;;;;;5025509;28;20543;-80
2023/07/28 02:10:23;;;;;;;0.08;0.03;;;22.10;75.10;;;;;;5025384;28;20494;-80
2023/07/28 02:12:50;;;;;;;0.03;0.03;;;22.10;74.90;;;;;;5023966;28;20072;-80
2023/07/28 02:15:15;;;;;;;0.10;0.10;;;22.10;75.10;;;;;;5009735;28;20395;-80
2023/07/28 02:17:41;;;;;;;0.15;0.10;;;22.10;75.40;;;;;;5021027;28;20042;-80
2023/07/28 02:20:10;;;;;;;0.08;0.08;;;22.10;75.40;;;;;;5039490;28;20406;-80
2023/07/28 02:22:36;;;;;;;0.10;0.10;;;22.10;75.40;;;;;;4994536;28;20053;-80
2023/07/28 02:25:02;;;;;;;0.10;0.10;;;22.10;75.40;;;;;;5024167;28;20050;-80
2023/07/28 02:27:28;;;;;;;0.10;0.10;;;22.10;75.40;;;;;;5023725;28;20108;-80
2023/07/28 02:29:53;;;;;;;0.10;0.10;;;22.10;75.40;;;;;;5024770;28;20507;-80
2023/07/28 02:32:19;;;;;;;0.32;0.13;;;22.10;75.40;;;;;;5025093;28;20056;-80
2023/07/28 02:34:45;;;;;;;1.85;0.20;;;22.10;75.40;;;;;;5028383;28;20044;-80
2023/07/28 02:37:10;;;;;;;0.10;0.10;;;22.10;75.40;;;;;;4988415;28;20041;-80
2023/07/28 02:39:36;;;;;;;0.20;0.17;;;22.10;75.50;;;;;;5004833;28;20172;-80
2023/07/28 02:42:01;;;;;;;0.32;0.30;;;22.10;75.20;;;;;;5022456;28;20057;-80
2023/07/28 02:44:27;;;;;;;0.30;0.30;;;22.10;75.40;;;;;;5023763;28;20041;-80
2023/07/28 02:46:52;;;;;;;0.52;0.50;;;22.10;75.60;;;;;;5036183;28;20111;-80
2023/07/28 02:49:18;;;;;;;0.68;0.30;;;22.10;75.70;;;;;;5022846;28;20052;-79
2023/07/28 02:51:43;;;;;;;0.55;0.40;;;22.00;75.80;;;;;;5027081;28;20037;-79
2023/07/28 02:54:09;;;;;;;0.68;0.40;;;22.10;75.90;;;;;;5026215;28;20127;-79
2023/07/28 02:56:37;;;;;;;0.25;0.22;;;22.00;76.00;;;;;;5029173;28;20041;-80
2023/07/28 02:59:03;;;;;;;0.40;0.40;;;22.00;75.90;;;;;;5054159;28;20045;-79
2023/07/28 03:01:32;;;;;;;0.35;0.22;;;22.10;76.00;;;;;;5025388;28;20132;-80
2023/07/28 03:04:01;;;;;;;0.40;0.20;;;22.10;76.70;;;;;;5024350;28;20049;-80
2023/07/28 03:06:27;;;;;;;0.30;0.30;;;22.00;75.90;;;;;;5027076;28;20057;-80
2023/07/28 03:08:52;;;;;;;0.30;0.15;;;22.10;75.90;;;;;;5024511;28;20183;-80
2023/07/28 03:11:18;;;;;;;1.20;0.20;;;22.00;75.90;;;;;;5021712;28;20045;-80
2023/07/28 03:13:43;;;;;;;0.55;0.30;;;22.10;75.90;;;;;;5007263;28;20058;-80
2023/07/28 03:16:09;;;;;;;0.30;0.20;;;22.10;75.90;;;;;;5024057;28;20128;-80
2023/07/28 03:18:35;;;;;;;0.30;0.30;;;22.10;75.80;;;;;;5024671;28;20577;-80
2023/07/28 03:21:00;;;;;;;0.40;0.20;;;22.10;75.80;;;;;;5008075;28;20132;-80
2023/07/28 03:23:26;;;;;;;0.15;0.15;;;22.10;75.60;;;;;;5024807;28;20495;-80
2023/07/28 03:25:52;;;;;;;0.30;0.10;;;22.10;75.50;;;;;;4989624;28;20397;-80
2023/07/28 03:28:17;;;;;;;0.32;0.15;;;22.10;75.50;;;;;;4989124;28;20530;-80
2023/07/28 03:30:43;;;;;;;0.20;0.20;;;22.10;75.40;;;;;;5020806;28;20045;-80
2023/07/28 03:33:08;;;;;;;0.35;0.35;;;22.10;75.70;;;;;;4991290;28;20030;-80
2023/07/28 03:35:34;;;;;;;0.40;0.20;;;22.10;75.60;;;;;;5023228;28;20053;-80
2023/07/28 03:37:59;;;;;;;0.45;0.20;;;22.00;75.00;;;;;;5025388;28;20575;-80
2023/07/28 03:40:25;;;;;;;0.30;0.20;;;22.10;75.30;;;;;;5023499;28;20041;-80
2023/07/28 03:42:51;;;;;;;0.10;0.10;;;22.10;75.10;;;;;;5024832;28;20465;-81
2023/07/28 03:45:16;;;;;;;0.20;0.20;;;22.10;75.10;;;;;;5031208;28;20033;-80
2023/07/28 03:47:42;;;;;;;0.25;0.20;;;22.10;75.20;;;;;;5021390;28;20057;-80
2023/07/28 03:50:08;;;;;;;0.13;0.10;;;22.10;75.20;;;;;;5007680;28;20029;-80
2023/07/28 03:52:33;;;;;;;0.10;0.10;;;22.00;75.20;;;;;;5024188;28;20491;-80
2023/07/28 03:54:59;;;;;;;0.10;0.10;;;22.10;75.10;;;;;;5004997;28;20736;-80
2023/07/28 03:57:24;;;;;;;0.10;0.10;;;22.10;74.90;;;;;;5022693;28;21168;-81
2023/07/28 03:59:50;;;;;;;0.13;0.13;;;22.10;74.60;;;;;;5019836;28;21504;-80
2023/07/28 04:02:16;;;;;;;0.15;0.10;;;22.10;74.70;;;;;;5025381;28;20060;-80
2023/07/28 04:04:41;;;;;;;0.10;0.10;;;22.10;74.90;;;;;;5022861;28;20046;-81
2023/07/28 04:07:07;;;;;;;0.20;0.10;;;22.10;75.00;;;;;;5020971;28;20048;-79
2023/07/28 04:09:32;;;;;;;0.10;0.10;;;22.10;74.90;;;;;;5024284;28;20049;-80
2023/07/28 04:11:58;;;;;;;0.10;0.10;;;22.10;75.00;;;;;;5021242;28;20049;-80
2023/07/28 04:14:23;;;;;;;0.10;0.10;;;22.10;75.10;;;;;;5025208;28;20539;-81
2023/07/28 04:16:49;;;;;;;0.10;0.10;;;22.10;75.00;;;;;;5023843;28;20114;-80
2023/07/28 04:19:14;;;;;;;0.65;0.10;;;22.10;75.30;;;;;;5020061;28;20108;-80
2023/07/28 04:21:40;;;;;;;0.93;0.20;;;22.10;74.90;;;;;;5021395;28;20049;-81
2023/07/28 04:24:09;;;;;;;0.10;0.10;;;22.10;75.30;;;;;;5008559;28;20515;-81
2023/07/28 04:26:35;;;;;;;0.20;0.20;;;22.10;75.10;;;;;;5022524;28;20152;-80
2023/07/28 04:29:00;;;;;;;0.20;0.10;;;22.10;75.30;;;;;;5008671;28;20566;-81
2023/07/28 04:31:26;;;;;;;0.10;0.10;;;22.10;75.30;;;;;;5021941;28;20049;-80
2023/07/28 04:33:51;;;;;;;0.00;0.00;;;22.10;75.80;;;;;;5021023;28;20030;-81
2023/07/28 04:36:17;;;;;;;0.25;0.15;;;22.10;75.70;;;;;;5020755;28;20100;-81
2023/07/28 04:38:42;;;;;;;0.35;0.20;;;22.10;75.60;;;;;;5021468;28;20128;-79
2023/07/28 04:41:08;;;;;;;0.13;0.13;;;22.10;75.10;;;;;;5018003;28;20044;-79
2023/07/28 04:43:33;;;;;;;0.13;0.10;;;22.10;77.10;;;;;;5025047;28;20380;-79
2023/07/28 04:45:59;;;;;;;0.10;0.10;;;22.10;78.10;;;;;;5024533;28;20140;-79
2023/07/28 04:48:25;;;;;;;0.13;0.10;;;22.00;79.90;;;;;;5023156;28;20050;-79
2023/07/28 04:50:50;;;;;;;0.20;0.10;;;22.00;80.40;;;;;;5022253;28;20049;-79
2023/07/28 04:53:16;;;;;;;0.08;0.03;;;22.00;80.20;;;;;;5021563;28;20041;-79
2023/07/28 04:55:41;;;;;;;0.00;0.00;;;21.90;80.70;;;;;;5025237;28;20410;-79
2023/07/28 04:58:07;;;;;;;0.00;0.00;;;21.90;81.20;;;;;;5024026;28;20099;-79
2023/07/28 05:00:32;;;;;;;0.10;0.00;;;21.90;82.20;;;;;;5005970;28;20045;-79
2023/07/28 05:02:58;;;;;;;0.00;0.00;;;21.90;82.50;;;;;;5023486;28;20033;-79
2023/07/28 05:05:23;;;;;;;0.28;0.00;;;21.90;82.00;;;;;;5009277;28;20033;-79
2023/07/28 05:07:49;;;;;;;0.00;0.00;;;21.90;82.90;;;;;;5028724;28;20120;-78
2023/07/28 05:10:15;;;;;;;0.22;0.00;;;21.90;82.90;;;;;;5022827;28;20048;-79
2023/07/28 05:12:40;;;;;;;0.00;0.00;;;21.90;82.80;;;;;;5026321;28;20041;-79
2023/07/28 05:15:10;;;;;;;0.00;0.00;;;21.90;82.40;;;;;;5026460;28;20045;-79
2023/07/28 05:17:36;;;;;;;0.00;0.00;;;21.90;83.20;;;;;;5026034;28;20092;-79
2023/07/28 05:20:02;;;;;;;0.10;0.10;;;21.90;83.40;;;;;;5024670;28;20132;-79
2023/07/28 05:22:27;;;;;;;0.10;0.00;;;21.80;83.20;;;;;;5024161;28;20136;-79
2023/07/28 05:24:53;;;;;;;0.08;0.00;;;21.90;83.10;;;;;;5024992;28;20064;-79
2023/07/28 05:27:19;;;;;;;0.00;0.00;;;21.90;83.00;;;;;;5003133;28;20485;-79
2023/07/28 05:29:44;;;;;;;0.13;0.00;;;21.80;82.80;;;;;;5024649;28;20165;-79
2023/07/28 05:32:10;;;;;;;2.10;0.00;;;21.80;83.80;;;;;;5024723;28;20045;-79
2023/07/28 05:34:35;;;;;;;0.15;0.00;;;21.80;83.70;;;;;;5023963;28;20041;-79
2023/07/28 05:37:01;;;;;;;0.10;0.00;;;21.70;84.60;;;;;;5025729;28;20044;-79
2023/07/28 05:39:27;;;;;;;0.05;0.05;;;21.80;83.10;;;;;;5027192;28;20423;-79
2023/07/28 05:41:52;;;;;;;0.00;0.00;;;21.80;84.30;;;;;;5024928;28;20038;-79
2023/07/28 05:44:18;;;;;;;0.00;0.00;;;21.80;84.40;;;;;;5026581;28;20053;-79
2023/07/28 05:46:44;;;;;;;0.00;0.00;;;21.80;84.80;;;;;;5027821;28;20053;-79
2023/07/28 05:49:10;;;;;;;0.00;0.00;;;21.80;84.50;;;;;;5037097;28;20776;-80
2023/07/28 05:51:35;;;;;;;0.10;0.10;;;21.80;84.20;;;;;;5022302;28;20134;-80
2023/07/28 05:54:01;;;;;;;0.00;0.00;;;21.80;85.10;;;;;;5024514;28;20045;-80
2023/07/28 05:56:26;;;;;;;0.00;0.00;;;21.70;85.40;;;;;;5024631;28;20033;-79
2023/07/28 05:58:52;;;;;;;0.00;0.00;;;21.70;85.30;;;;;;5023818;28;20038;-79
2023/07/28 06:01:18;;;;;;;0.08;0.08;;;21.70;85.70;;;;;;5022008;28;20037;-80
2023/07/28 06:03:44;;;;;;;0.10;0.10;;;21.70;85.10;;;;;;5022790;28;20112;-79
2023/07/28 06:06:10;;;;;;;0.55;0.00;;;21.80;85.70;;;;;;5024696;28;20037;-79
2023/07/28 06:08:36;;;;;;;0.10;0.10;;;21.70;85.40;;;;;;5023253;28;20041;-79
2023/07/28 06:11:05;;;;;;;0.15;0.00;;;21.70;85.50;;;;;;5025621;28;20116;-79
2023/07/28 06:13:31;;;;;;;0.00;0.00;;;21.70;86.10;;;;;;5022920;28;20045;-79
2023/07/28 06:15:58;;;;;;;0.10;0.10;;;21.70;86.50;;;;;;5022170;28;20085;-79
2023/07/28 06:18:24;;;;;;;0.00;0.00;;;21.70;86.30;;;;;;5023107;28;20041;-80
2023/07/28 06:20:49;;;;;;;2.45;0.40;;;21.70;86.10;;;;;;5021816;28;20037;-79
2023/07/28 06:23:15;;;;;;;0.10;0.10;;;21.70;86.40;;;;;;5026480;28;20041;-79
2023/07/28 06:25:43;;;;;;;0.32;0.10;;;21.70;85.40;;;;;;5025293;28;20560;-80
2023/07/28 06:28:10;;;;;;;0.20;0.10;;;21.70;86.30;;;;;;5024352;28;20037;-80
2023/07/28 06:30:37;;;;;;;0.10;0.10;;;21.80;86.00;;;;;;4991941;28;20041;-80
2023/07/28 06:33:03;;;;;;;0.50;0.10;;;21.70;86.40;;;;;;5023590;28;20041;-80
2023/07/28 06:35:28;;;;;;;0.30;0.00;;;21.70;86.50;;;;;;5024320;28;20388;-80
2023/07/28 06:37:54;;;;;;;0.30;0.03;;;21.80;86.10;;;;;;5016720;28;20107;-79
2023/07/28 06:40:20;;;;;;;0.38;0.13;;;21.80;85.40;;;;;;4659561;28;9999600;-79
2023/07/28 06:42:46;;;;;;;0.10;0.10;;;21.80;85.00;;;;;;4996133;28;20111;-79
2023/07/28 06:45:11;;;;;;;1.05;0.05;;;21.90;85.50;;;;;;5009875;28;20857;-78
2023/07/28 06:47:37;;;;;;;0.10;0.10;;;21.90;85.90;;;;;;4992682;28;20049;-79
2023/07/28 06:50:03;;;;;;;0.10;0.10;;;21.90;85.60;;;;;;4975237;28;20045;-79
2023/07/28 06:52:28;;;;;;;0.20;0.20;;;21.80;85.80;;;;;;5008914;28;20099;-79
2023/07/28 06:54:54;;;;;;;0.88;0.10;;;21.90;85.30;;;;;;5010692;28;20041;-79
2023/07/28 06:57:20;;;;;;;0.00;0.00;;;21.90;85.70;;;;;;5009427;28;20922;-80
2023/07/28 06:59:46;;;;;;;0.40;0.10;;;21.90;85.70;;;;;;5010092;28;20056;-80
2023/07/28 07:02:11;;;;;;;0.75;0.30;;;21.90;85.50;;;;;;5011502;28;20096;-79
2023/07/28 07:04:37;;;;;;;0.00;0.00;;;21.80;86.20;;;;;;5018176;28;20072;-79
2023/07/28 07:07:02;;;;;;;0.00;0.00;;;21.90;86.10;;;;;;5021197;28;20431;-79
2023/07/28 07:09:28;;;;;;;0.10;0.00;;;21.90;85.40;;;;;;4999836;28;20136;-80
2023/07/28 07:11:54;;;;;;;0.00;0.00;;;21.90;86.10;;;;;;5004247;28;20067;-80
2023/07/28 07:14:20;;;;;;;0.05;0.05;;;21.90;86.50;;;;;;5021419;28;20041;-80
2023/07/28 07:16:45;;;;;;;0.00;0.00;;;21.90;85.90;;;;;;5019706;28;21243;-79
2023/07/28 07:19:11;;;;;;;0.13;0.10;;;21.80;86.30;;;;;;5021383;28;20052;-79
2023/07/28 07:21:37;;;;;;;0.10;0.10;;;21.80;86.30;;;;;;4999931;28;20053;-79
2023/07/28 07:24:03;;;;;;;1.48;0.20;;;21.80;86.20;;;;;;5020832;28;20041;-78
2023/07/28 07:26:30;;;;;;;0.10;0.10;;;21.80;86.10;;;;;;5005528;28;20076;-79
2023/07/28 07:28:56;;;;;;;0.10;0.10;;;21.90;85.60;;;;;;5020420;28;20049;-78
2023/07/28 07:31:21;;;;;;;0.10;0.10;;;21.80;85.60;;;;;;5017494;28;20045;-79
2023/07/28 07:33:47;;;;;;;0.05;0.00;;;21.90;85.70;;;;;;5017341;28;20048;-79
2023/07/28 07:36:13;;;;;;;1.45;0.10;;;21.90;85.40;;;;;;5001925;28;20045;-80
2023/07/28 07:38:40;;;;;;;0.10;0.10;;;21.90;85.50;;;;;;5019101;28;20132;-79
2023/07/28 07:41:07;;;;;;;0.80;0.10;;;21.90;85.50;;;;;;5022905;28;20040;-78
2023/07/28 07:43:33;;;;;;;0.32;0.20;;;21.90;85.60;;;;;;5014356;28;20053;-78
2023/07/28 07:45:58;;;;;;;0.85;0.35;;;21.90;85.20;;;;;;5000973;28;20041;-80
2023/07/28 07:48:24;;;;;;;0.75;0.20;;;21.90;85.90;;;;;;5001863;28;20042;-79
2023/07/28 07:50:50;;;;;;;0.10;0.10;;;21.90;85.60;;;;;;5020687;28;20583;-79
2023/07/28 07:53:16;;;;;;;1.48;0.10;;;21.90;84.80;;;;;;5016110;28;20853;-78
2023/07/28 07:55:41;;;;;;;0.15;0.15;;;21.80;86.70;;;;;;5019307;28;20069;-78
2023/07/28 07:58:07;;;;;;;0.57;0.20;;;21.80;86.70;;;;;;5015793;28;20042;-79
2023/07/28 08:00:33;;;;;;;0.20;0.20;;;21.80;85.90;;;;;;5020287;28;20131;-80
2023/07/28 08:02:59;;;;;;;0.28;0.28;;;21.80;84.90;;;;;;5005143;28;20046;-81
2023/07/28 08:05:24;;;;;;;0.28;0.20;;;21.90;85.60;;;;;;5003148;28;20048;-78
2023/07/28 08:07:50;;;;;;;0.45;0.28;;;21.80;85.80;;;;;;5021702;28;20537;-81
2023/07/28 08:10:16;;;;;;;0.22;0.20;;;21.80;85.70;;;;;;5002961;28;20107;-78
2023/07/28 08:12:44;;;;;;;0.43;0.30;;;21.80;86.00;;;;;;5016625;28;20056;-79
2023/07/28 08:15:10;;;;;;;0.45;0.10;;;21.90;86.00;;;;;;5022133;28;20164;-78
2023/07/28 08:17:35;;;;;;;0.10;0.10;;;21.90;85.80;;;;;;5005672;28;20677;-80
2023/07/28 08:20:01;;;;;;;0.20;0.20;;;21.90;86.10;;;;;;5017905;28;20520;-78
2023/07/28 08:22:26;;;;;;;0.25;0.22;;;21.90;86.40;;;;;;5001852;28;20042;-79
2023/07/28 08:24:52;;;;;;;0.10;0.10;;;21.90;86.00;;;;;;5021333;28;20038;-80
2023/07/28 08:27:18;;;;;;;0.20;0.20;;;21.90;86.50;;;;;;5019130;28;20037;-79
2023/07/28 08:29:44;;;;;;;0.25;0.20;;;22.00;85.60;;;;;;5020045;28;20570;-81
2023/07/28 08:32:09;;;;;;;0.32;0.25;;;22.00;86.20;;;;;;5006918;28;20053;-80
2023/07/28 08:34:35;;;;;;;0.40;0.25;;;22.00;86.90;;;;;;5001018;28;20499;-79
2023/07/28 08:37:00;;;;;;;0.20;0.20;;;22.00;86.00;;;;;;5001367;28;20058;-80
2023/07/28 08:39:26;;;;;;;1.42;0.10;;;22.10;85.40;;;;;;5022321;28;20060;-80
2023/07/28 08:41:59;;;;;;;0.32;0.10;;;22.10;86.20;;;;;;5023553;28;20515;-78
2023/07/28 08:44:25;;;;;;;0.10;0.10;;;22.10;86.10;;;;;;5012610;28;20044;-78
2023/07/28 08:46:50;;;;;;;0.20;0.10;;;22.10;86.30;;;;;;5022509;28;20034;-78
2023/07/28 08:49:16;;;;;;;0.30;0.20;;;22.10;86.20;;;;;;5023174;28;20088;-81
2023/07/28 08:51:42;;;;;;;0.10;0.10;;;22.10;86.20;;;;;;5022503;28;20046;-80
2023/07/28 08:54:08;;;;;;;0.10;0.10;;;22.10;85.70;;;;;;5023561;28;20099;-82
2023/07/28 08:56:33;;;;;;;1.85;0.20;;;22.10;85.30;;;;;;4657628;28;9999940;-83
2023/07/28 08:58:59;;;;;;;0.20;0.20;;;22.10;85.90;;;;;;5024161;28;20490;-78
2023/07/28 09:01:25;;;;;;;0.15;0.15;;;22.20;85.60;;;;;;5022078;28;20519;-78
2023/07/28 09:03:50;;;;;;;0.20;0.20;;;22.20;85.40;;;;;;5020249;28;20045;-78
2023/07/28 09:06:16;;;;;;;0.30;0.13;;;22.20;85.60;;;;;;5020935;28;20049;-79
2023/07/28 09:08:43;;;;;;;0.98;0.30;;;22.20;85.00;;;;;;5022278;28;23083;-79
2023/07/28 09:11:08;;;;;;;0.20;0.20;;;22.20;84.90;;;;;;5022743;28;20080;-79
2023/07/28 09:13:39;;;;;;;0.10;0.10;;;22.20;84.70;;;;;;5020972;28;20057;-77
2023/07/28 09:16:05;;;;;;;0.20;0.20;;;22.20;84.40;;;;;;5037474;28;20042;-78
2023/07/28 09:18:30;;;;;;;0.20;0.20;;;22.20;83.70;;;;;;5005386;28;20049;-77
2023/07/28 09:20:56;;;;;;;0.10;0.10;;;22.20;83.40;;;;;;5025331;28;20120;-77
2023/07/28 09:23:29;;;;;;;1.65;0.20;;;22.30;83.60;;;;;;5021353;28;20049;-77
2023/07/28 09:26:02;;;;;;;0.10;0.10;;;22.20;83.10;;;;;;5049721;28;20054;-77
2023/07/28 09:28:41;;;;;;;0.30;0.30;;;22.20;83.10;;;;;;5023379;28;20037;-77
2023/07/28 09:31:07;;;;;;;0.20;0.20;;;22.20;82.60;;;;;;5050714;28;20053;-77
2023/07/28 09:33:34;;;;;;;0.30;0.25;;;22.20;82.50;;;;;;5020949;28;20077;-77
2023/07/28 09:36:09;;;;;;;0.20;0.20;;;22.20;82.70;;;;;;5024151;28;20053;-77
2023/07/28 09:38:43;;;;;;;0.10;0.10;;;22.20;82.60;;;;;;5023928;28;20056;-77
2023/07/28 09:41:11;;;;;;;0.47;0.30;;;22.20;82.70;;;;;;5022049;28;20042;-77
2023/07/28 09:43:37;;;;;;;0.10;0.10;;;22.30;82.80;;;;;;5007007;28;20065;-77
2023/07/28 09:46:07;;;;;;;0.20;0.20;;;22.30;82.50;;;;;;4986233;28;20045;-77
2023/07/28 09:48:33;;;;;;;0.20;0.20;;;22.30;82.30;;;;;;5036929;28;20033;-77
2023/07/28 09:51:06;;;;;;;0.17;0.17;;;22.20;81.90;;;;;;5005501;28;20033;-77
2023/07/28 09:53:33;;;;;;;0.13;0.10;;;22.30;82.00;;;;;;5023762;28;20512;-77
2023/07/28 09:55:58;;;;;;;0.20;0.20;;;22.30;82.10;;;;;;5041939;28;20103;-77
2023/07/28 09:58:24;;;;;;;0.20;0.20;;;22.30;82.30;;;;;;5022293;28;20068;-77
2023/07/28 10:00:49;;;;;;;0.22;0.22;;;22.30;82.10;;;;;;5007965;28;20048;-77
2023/07/28 10:03:15;;;;;;;0.20;0.20;;;22.30;81.80;;;;;;5024819;28;20492;-79
2023/07/28 10:05:41;;;;;;;0.30;0.28;;;22.30;81.70;;;;;;4991631;28;20041;-77
2023/07/28 10:08:06;;;;;;;0.43;0.30;;;22.20;81.90;;;;;;5010138;28;20041;-77
2023/07/28 10:10:32;;;;;;;0.50;0.25;;;22.20;82.30;;;;;;5007027;28;20077;-78
2023/07/28 10:12:58;;;;;;;0.65;0.30;;;22.30;82.10;;;;;;4989937;28;20037;-79
2023/07/28 10:15:28;;;;;;;0.35;0.30;;;22.20;82.30;;;;;;5022835;28;20403;-78
2023/07/28 10:17:57;;;;;;;1.02;0.40;;;22.30;83.20;;;;;;5022726;28;20195;-78
2023/07/28 10:20:41;;;;;;;0.43;0.40;;;22.30;83.00;;;;;;5025975;28;20045;-78
2023/07/28 10:23:33;;;;;;;0.40;0.40;;;22.30;83.20;;;;;;5042164;28;20056;-78
2023/07/28 10:26:00;;;;;;;0.40;0.40;;;22.20;83.50;;;;;;5023670;28;20037;-78
2023/07/28 10:28:41;;;;;;;0.38;0.30;;;22.30;83.10;;;;;;5021520;28;20136;-80
2023/07/28 10:31:07;;;;;;;0.47;0.47;;;22.20;83.10;;;;;;5022004;28;20042;-76
2023/07/28 10:33:38;;;;;;;1.30;0.30;;;22.30;82.70;;;;;;5024814;28;20103;-77
2023/07/28 10:36:15;;;;;;;0.50;0.50;;;22.30;82.60;;;;;;4476425;28;10002775;-76
2023/07/28 10:38:43;;;;;;;0.40;0.40;;;22.30;82.60;;;;;;5020317;28;20111;-77
2023/07/28 10:41:14;;;;;;;0.35;0.32;;;22.30;82.40;;;;;;5023723;28;20572;-78
2023/07/28 10:43:39;;;;;;;1.67;0.35;;;22.30;82.30;;;;;;5005591;28;20045;-78
2023/07/28 10:46:08;;;;;;;0.40;0.40;;;22.30;82.20;;;;;;4986653;28;20134;-77
2023/07/28 10:48:41;;;;;;;1.08;0.30;;;22.40;82.10;;;;;;5018455;28;20190;-77
2023/07/28 10:51:06;;;;;;;0.30;0.30;;;22.40;82.00;;;;;;5019265;28;20604;-76
2023/07/28 10:53:32;;;;;;;0.35;0.35;;;22.40;81.90;;;;;;5022195;28;20053;-77
2023/07/28 10:55:59;;;;;;;0.50;0.30;;;22.40;81.80;;;;;;5039660;28;20041;-76
2023/07/28 10:58:24;;;;;;;0.47;0.35;;;22.50;81.40;;;;;;5020355;28;20045;-77
2023/07/28 11:00:51;;;;;;;0.28;0.28;;;22.50;81.00;;;;;;5004277;28;20045;-76
2023/07/28 11:03:17;;;;;;;0.20;0.20;;;22.50;80.90;;;;;;5019637;28;20064;-76
2023/07/28 11:05:42;;;;;;;0.30;0.20;;;22.50;80.90;;;;;;5019985;28;20104;-77
2023/07/28 11:08:08;;;;;;;0.30;0.30;;;22.50;80.60;;;;;;5000851;28;20098;-76
2023/07/28 11:10:35;;;;;;;0.30;0.30;;;22.50;80.70;;;;;;5003658;28;20136;-76
2023/07/28 11:13:04;;;;;;;0.35;0.35;;;22.50;80.30;;;;;;5020205;28;20046;-77
2023/07/28 11:15:30;;;;;;;2.33;0.30;;;22.50;80.30;;;;;;5001839;28;20115;-80
2023/07/28 11:17:55;;;;;;;0.32;0.28;;;22.60;80.50;;;;;;5020723;28;20438;-77
2023/07/28 11:20:22;;;;;;;0.25;0.15;;;22.50;80.20;;;;;;5019808;28;20053;-78
2023/07/28 11:22:54;;;;;;;0.20;0.20;;;22.50;80.20;;;;;;5020198;28;20041;-77
2023/07/28 11:25:21;;;;;;;0.20;0.20;;;22.60;79.60;;;;;;5017228;28;20881;-77
2023/07/28 11:27:47;;;;;;;0.20;0.20;;;22.60;79.50;;;;;;5017033;28;20068;-77
2023/07/28 11:30:13;;;;;;;0.20;0.20;;;22.60;79.50;;;;;;5002830;28;20037;-77
2023/07/28 11:32:39;;;;;;;0.65;0.30;;;22.60;79.40;;;;;;5002862;28;20041;-77
2023/07/28 11:35:06;;;;;;;0.38;0.28;;;22.70;79.10;;;;;;5022614;28;20049;-77
2023/07/28 11:37:33;;;;;;;1.42;0.22;;;22.70;78.80;;;;;;5003641;28;20286;-78
2023/07/28 11:39:59;;;;;;;1.75;0.30;;;22.70;78.30;;;;;;5016191;28;20555;-77
2023/07/28 11:42:26;;;;;;;0.40;0.30;;;22.70;78.40;;;;;;4986427;28;20049;-77
2023/07/28 11:44:52;;;;;;;0.30;0.20;;;22.80;78.50;;;;;;5001435;28;20057;-78
2023/07/28 11:47:20;;;;;;;0.30;0.30;;;22.70;78.30;;;;;;5022389;28;20041;-78
2023/07/28 11:49:50;;;;;;;0.30;0.30;;;22.70;78.70;;;;;;5003938;28;20199;-77
2023/07/28 11:52:16;;;;;;;0.20;0.20;;;22.80;78.50;;;;;;5030224;28;20049;-77
2023/07/28 11:54:41;;;;;;;0.50;0.40;;;22.80;78.40;;;;;;5019273;28;20041;-77
2023/07/28 11:57:08;;;;;;;0.77;0.77;;;22.80;78.30;;;;;;4984754;28;20037;-78
2023/07/28 11:59:34;;;;;;;0.40;0.40;;;22.80;78.30;;;;;;5021347;28;20048;-79
2023/07/28 12:02:00;;;;;;;0.30;0.30;;;22.80;78.00;;;;;;5021988;28;20045;-76
2023/07/28 12:04:28;;;;;;;0.43;0.40;;;22.80;78.00;;;;;;5020826;28;20048;-77
2023/07/28 12:07:14;;;;;;;0.20;0.20;;;22.80;78.00;;;;;;5022509;28;20557;-76
2023/07/28 12:09:46;;;;;;;0.40;0.40;;;22.80;78.00;;;;;;5017257;28;20219;-76
2023/07/28 12:12:12;;;;;;;0.28;0.28;;;22.70;77.80;;;;;;5019667;28;20059;-77
2023/07/28 12:14:38;;;;;;;0.30;0.30;;;22.70;77.70;;;;;;5020191;28;20045;-76
2023/07/28 12:17:11;;;;;;;0.30;0.30;;;22.80;78.00;;;;;;5023273;28;20079;-76
2023/07/28 12:19:41;;;;;;;0.20;0.20;;;22.80;77.50;;;;;;5005610;28;20053;-76
2023/07/28 12:22:07;;;;;;;0.20;0.20;;;22.80;77.00;;;;;;5020616;28;20053;-76
2023/07/28 12:24:33;;;;;;;0.20;0.20;;;22.80;76.80;;;;;;5002326;28;20083;-76
2023/07/28 12:26:59;;;;;;;0.20;0.20;;;22.80;76.70;;;;;;4999112;28;20491;-76
2023/07/28 12:29:24;;;;;;;0.30;0.30;;;22.90;76.60;;;;;;5022146;28;20041;-77
2023/07/28 12:31:50;;;;;;;2.75;0.20;;;22.80;76.40;;;;;;5049049;28;20121;-76
2023/07/28 12:34:15;;;;;;;0.10;0.10;;;22.80;76.20;;;;;;5020990;28;20034;-76
2023/07/28 12:36:41;;;;;;;0.22;0.22;;;22.80;76.00;;;;;;5018744;28;20042;-78
2023/07/28 12:39:07;;;;;;;0.40;0.40;;;22.80;75.90;;;;;;5003586;28;20029;-76
2023/07/28 12:41:33;;;;;;;0.25;0.25;;;22.90;75.40;;;;;;5003085;28;20041;-77